Baring, MO (63531)

3:00 AM CDT on September 02, 2014 (GMT -0500)
Kirksville Regional | Change Station
CLOSE
Current Station
Airport
Location: Kirksville,
Elevation: 965 ft
Nearby Weather Stations

Elev 965 ft 40.10 °N, 92.55 °W | Updated 5 minutes ago

Fog
Fog
69 °F
Feels Like 69 °F
N
5
Wind Variable Wind from WSW

Today
High -- | Low -- °F
--% Chance of Precip.
Yesterday
High -- | Low -- °F
Precip. -- in
6:37 AM 7:39 PM
Waxing Crescent, 49% visible
Pressure 29.91 in
Visibility 0.5 miles
Clouds
Dew Point 68 °F
Humidity 96%
Rainfall 0.00 in
Snow Depth Not available.
UV Not available.
Pollen 5.90 out of 12
Air Quality Not available.
Flu Activity Not available.
METAR KIRK 020755Z AUTO 25004KT 1/2SM FG VV002 21/20 A2992 RMK AO2 SLP127 T02060200

More Conditions Fewer Conditions

Pressure 29.91 in
Visibility 0.5 miles
Clouds
Dew Point 68 °F
Humidity 96%
Rainfall 0.00 in
Snow Depth Not available.
UV Not available.
Pollen 5.90 out of 12
Air Quality Not available.
Flu Activity Not available.
METAR KIRK 020755Z AUTO 25004KT 1/2SM FG VV002 21/20 A2992 RMK AO2 SLP127 T02060200

More Conditions Fewer Conditions

10-Day Weather Forecast

Almanac

Astronomy

Sep. 02, 2014 Rise Set
Actual Time 6:37 AM CDT 7:39 PM CDT
Civil Twilight 6:09 AM CDT 8:06 PM CDT
Nautical Twilight 5:36 AM CDT 8:39 PM CDT
Astronomical Twilight 5:01 AM CDT 9:14 PM CDT
Moon 2:22 PM CDT No Moon Set
Length of Visible Light 13h 57m
Length of Day
13h 01m
Tomorrow will be 2m 34s shorter.
Waxing Crescent, 49% of the Moon is Illuminated
Today
Waxing Crescent
Sep 2
First Quarter
Sep 8
Full
Sep 15
Last Quarter
Sep 24
New

Today's Extremes

State Highs State Lows

Community

WunderPhotos

Upload Photos

1,749,589 photos uploaded!

WunderBlogs® & News

Nearby

Snow Depth

Station Depth Elevation
No new snow has been reported.

Earthquake Activity

City Distance Mag. Time & Date
No recent earthquake activity has been reported nearby.
Minimum magnitude displayed is 2.5.

Coastal Water Temperatures

Place Temperature
No Stations Reporting

Nearby Weather Stations